sensor_id;sensor_type;location;lat;lon;timestamp;temperature;humidity
14798;DHT22;7490;63.708;20.368;2022-10-31T00:01:21;3.10;87.40
14798;DHT22;7490;63.708;20.368;2022-10-31T00:03:47;3.10;87.40
14798;DHT22;7490;63.708;20.368;2022-10-31T00:06:14;3.10;87.50
14798;DHT22;7490;63.708;20.368;2022-10-31T00:08:39;3.10;87.50
14798;DHT22;7490;63.708;20.368;2022-10-31T00:11:09;3.10;87.60
14798;DHT22;7490;63.708;20.368;2022-10-31T00:13:35;3.10;87.70
14798;DHT22;7490;63.708;20.368;2022-10-31T00:16:00;3.10;87.60
14798;DHT22;7490;63.708;20.368;2022-10-31T00:18:26;3.10;87.60
14798;DHT22;7490;63.708;20.368;2022-10-31T00:20:59;3.10;87.70
14798;DHT22;7490;63.708;20.368;2022-10-31T00:23:25;3.10;87.80
14798;DHT22;7490;63.708;20.368;2022-10-31T00:25:51;3.10;87.70
14798;DHT22;7490;63.708;20.368;2022-10-31T00:28:16;3.10;87.80
14798;DHT22;7490;63.708;20.368;2022-10-31T00:30:42;3.10;87.80
14798;DHT22;7490;63.708;20.368;2022-10-31T00:33:08;3.10;87.70
14798;DHT22;7490;63.708;20.368;2022-10-31T00:35:33;3.10;87.70
14798;DHT22;7490;63.708;20.368;2022-10-31T00:37:59;3.10;87.80
14798;DHT22;7490;63.708;20.368;2022-10-31T00:40:25;3.10;87.80
14798;DHT22;7490;63.708;20.368;2022-10-31T00:42:50;3.10;87.80
14798;DHT22;7490;63.708;20.368;2022-10-31T00:45:16;3.10;87.70
14798;DHT22;7490;63.708;20.368;2022-10-31T00:47:42;3.00;87.70
14798;DHT22;7490;63.708;20.368;2022-10-31T00:50:07;3.00;87.60
14798;DHT22;7490;63.708;20.368;2022-10-31T00:52:34;3.00;87.70
14798;DHT22;7490;63.708;20.368;2022-10-31T00:54:59;2.90;87.70
14798;DHT22;7490;63.708;20.368;2022-10-31T00:57:25;2.90;87.70
14798;DHT22;7490;63.708;20.368;2022-10-31T00:59:51;2.90;87.80
14798;DHT22;7490;63.708;20.368;2022-10-31T01:02:16;2.90;87.80
14798;DHT22;7490;63.708;20.368;2022-10-31T01:04:42;2.90;87.90
14798;DHT22;7490;63.708;20.368;2022-10-31T01:07:08;2.80;87.80
14798;DHT22;7490;63.708;20.368;2022-10-31T01:09:33;2.80;87.80
14798;DHT22;7490;63.708;20.368;2022-10-31T01:11:59;2.90;88.00
14798;DHT22;7490;63.708;20.368;2022-10-31T01:14:25;2.80;88.00
14798;DHT22;7490;63.708;20.368;2022-10-31T01:16:50;2.80;88.00
14798;DHT22;7490;63.708;20.368;2022-10-31T01:19:16;2.90;88.90
14798;DHT22;7490;63.708;20.368;2022-10-31T01:21:42;2.90;88.20
14798;DHT22;7490;63.708;20.368;2022-10-31T01:24:08;2.90;88.40
14798;DHT22;7490;63.708;20.368;2022-10-31T01:26:34;3.00;88.50
14798;DHT22;7490;63.708;20.368;2022-10-31T01:29:03;3.00;88.40
14798;DHT22;7490;63.708;20.368;2022-10-31T01:31:31;3.00;88.50
14798;DHT22;7490;63.708;20.368;2022-10-31T01:33:58;3.10;88.50
14798;DHT22;7490;63.708;20.368;2022-10-31T01:38:50;3.20;88.40
14798;DHT22;7490;63.708;20.368;2022-10-31T01:41:19;3.20;88.40
14798;DHT22;7490;63.708;20.368;2022-10-31T01:46:37;3.30;88.50
14798;DHT22;7490;63.708;20.368;2022-10-31T01:49:10;3.30;88.50
14798;DHT22;7490;63.708;20.368;2022-10-31T01:51:42;3.40;88.50
14798;DHT22;7490;63.708;20.368;2022-10-31T01:54:14;3.40;88.60
14798;DHT22;7490;63.708;20.368;2022-10-31T01:56:42;3.40;88.60
14798;DHT22;7490;63.708;20.368;2022-10-31T01:59:11;3.50;88.60
14798;DHT22;7490;63.708;20.368;2022-10-31T02:01:38;3.50;88.50
14798;DHT22;7490;63.708;20.368;2022-10-31T02:04:04;3.50;88.40
14798;DHT22;7490;63.708;20.368;2022-10-31T02:06:39;3.50;88.40
14798;DHT22;7490;63.708;20.368;2022-10-31T02:09:06;3.50;88.40
14798;DHT22;7490;63.708;20.368;2022-10-31T02:11:34;3.60;88.40
14798;DHT22;7490;63.708;20.368;2022-10-31T02:14:02;3.60;88.40
14798;DHT22;7490;63.708;20.368;2022-10-31T02:16:28;3.60;88.30
14798;DHT22;7490;63.708;20.368;2022-10-31T02:18:54;3.50;88.30
14798;DHT22;7490;63.708;20.368;2022-10-31T02:42:48;3.10;88.10
14798;DHT22;7490;63.708;20.368;2022-10-31T02:45:21;3.00;88.10
14798;DHT22;7490;63.708;20.368;2022-10-31T02:47:50;3.00;88.20
14798;DHT22;7490;63.708;20.368;2022-10-31T02:50:26;3.00;88.30
14798;DHT22;7490;63.708;20.368;2022-10-31T02:52:54;2.90;88.40
14798;DHT22;7490;63.708;20.368;2022-10-31T02:57:48;2.80;88.40
14798;DHT22;7490;63.708;20.368;2022-10-31T03:00:16;2.70;88.30
14798;DHT22;7490;63.708;20.368;2022-10-31T03:08:07;2.60;88.30
14798;DHT22;7490;63.708;20.368;2022-10-31T03:10:35;2.60;88.30
14798;DHT22;7490;63.708;20.368;2022-10-31T03:13:10;2.60;88.40
14798;DHT22;7490;63.708;20.368;2022-10-31T03:15:45;2.50;88.50
14798;DHT22;7490;63.708;20.368;2022-10-31T03:20:45;2.40;88.40
14798;DHT22;7490;63.708;20.368;2022-10-31T03:23:15;2.50;88.70
14798;DHT22;7490;63.708;20.368;2022-10-31T03:25:42;2.40;88.50
14798;DHT22;7490;63.708;20.368;2022-10-31T03:28:09;2.40;88.50
14798;DHT22;7490;63.708;20.368;2022-10-31T03:30:37;2.30;88.50
14798;DHT22;7490;63.708;20.368;2022-10-31T03:33:08;2.70;89.00
14798;DHT22;7490;63.708;20.368;2022-10-31T03:35:36;2.30;88.90
14798;DHT22;7490;63.708;20.368;2022-10-31T03:38:03;2.30;89.00
14798;DHT22;7490;63.708;20.368;2022-10-31T03:40:30;2.30;89.20
14798;DHT22;7490;63.708;20.368;2022-10-31T03:43:03;2.20;89.20
14798;DHT22;7490;63.708;20.368;2022-10-31T03:45:30;2.20;89.20
14798;DHT22;7490;63.708;20.368;2022-10-31T03:47:58;2.20;89.00
14798;DHT22;7490;63.708;20.368;2022-10-31T03:50:28;2.20;88.80
14798;DHT22;7490;63.708;20.368;2022-10-31T03:53:11;2.20;88.80
14798;DHT22;7490;63.708;20.368;2022-10-31T03:55:57;2.20;88.90
14798;DHT22;7490;63.708;20.368;2022-10-31T03:58:29;2.10;88.70
14798;DHT22;7490;63.708;20.368;2022-10-31T04:00:58;2.10;88.70
14798;DHT22;7490;63.708;20.368;2022-10-31T04:03:30;2.10;88.60
14798;DHT22;7490;63.708;20.368;2022-10-31T04:05:59;2.10;88.60
14798;DHT22;7490;63.708;20.368;2022-10-31T04:08:28;2.00;88.80
14798;DHT22;7490;63.708;20.368;2022-10-31T04:10:56;2.00;88.80
14798;DHT22;7490;63.708;20.368;2022-10-31T04:13:25;2.00;88.70
14798;DHT22;7490;63.708;20.368;2022-10-31T04:15:54;1.90;88.70
14798;DHT22;7490;63.708;20.368;2022-10-31T04:18:21;1.90;88.70
14798;DHT22;7490;63.708;20.368;2022-10-31T04:20:47;1.90;88.80
14798;DHT22;7490;63.708;20.368;2022-10-31T04:23:22;1.90;88.80
14798;DHT22;7490;63.708;20.368;2022-10-31T04:25:48;1.90;88.90
14798;DHT22;7490;63.708;20.368;2022-10-31T04:28:14;1.90;88.90
14798;DHT22;7490;63.708;20.368;2022-10-31T04:30:39;1.90;88.10
14798;DHT22;7490;63.708;20.368;2022-10-31T04:33:05;1.90;88.80
14798;DHT22;7490;63.708;20.368;2022-10-31T04:35:32;1.80;88.70
14798;DHT22;7490;63.708;20.368;2022-10-31T04:37:57;1.80;89.30
14798;DHT22;7490;63.708;20.368;2022-10-31T04:40:23;1.80;89.10
14798;DHT22;7490;63.708;20.368;2022-10-31T04:42:48;1.80;89.00
14798;DHT22;7490;63.708;20.368;2022-10-31T04:45:14;1.80;89.00
14798;DHT22;7490;63.708;20.368;2022-10-31T04:47:40;1.80;89.10
14798;DHT22;7490;63.708;20.368;2022-10-31T04:50:06;1.70;89.10
14798;DHT22;7490;63.708;20.368;2022-10-31T04:52:32;1.70;89.20
14798;DHT22;7490;63.708;20.368;2022-10-31T04:54:58;1.70;89.20
14798;DHT22;7490;63.708;20.368;2022-10-31T04:57:23;1.70;89.20
14798;DHT22;7490;63.708;20.368;2022-10-31T04:59:49;1.70;89.10
14798;DHT22;7490;63.708;20.368;2022-10-31T05:02:15;1.70;89.20
14798;DHT22;7490;63.708;20.368;2022-10-31T05:04:40;1.70;89.20
14798;DHT22;7490;63.708;20.368;2022-10-31T05:07:06;1.70;89.20
14798;DHT22;7490;63.708;20.368;2022-10-31T05:09:32;1.70;89.20
14798;DHT22;7490;63.708;20.368;2022-10-31T05:11:57;1.70;89.30
14798;DHT22;7490;63.708;20.368;2022-10-31T05:14:23;1.60;89.10
14798;DHT22;7490;63.708;20.368;2022-10-31T05:16:48;1.60;89.10
14798;DHT22;7490;63.708;20.368;2022-10-31T05:19:14;1.60;89.20
14798;DHT22;7490;63.708;20.368;2022-10-31T05:21:40;1.60;89.40
14798;DHT22;7490;63.708;20.368;2022-10-31T05:24:06;1.60;89.50
14798;DHT22;7490;63.708;20.368;2022-10-31T05:26:31;1.60;89.60
14798;DHT22;7490;63.708;20.368;2022-10-31T05:28:57;1.60;89.70
14798;DHT22;7490;63.708;20.368;2022-10-31T05:31:23;1.50;89.70
14798;DHT22;7490;63.708;20.368;2022-10-31T05:33:49;1.50;89.80
14798;DHT22;7490;63.708;20.368;2022-10-31T05:36:14;1.50;89.80
14798;DHT22;7490;63.708;20.368;2022-10-31T05:38:40;1.60;89.90
14798;DHT22;7490;63.708;20.368;2022-10-31T05:41:05;1.50;89.90
14798;DHT22;7490;63.708;20.368;2022-10-31T05:43:31;1.50;90.00
14798;DHT22;7490;63.708;20.368;2022-10-31T05:45:57;1.50;90.00
14798;DHT22;7490;63.708;20.368;2022-10-31T05:48:23;1.60;89.90
14798;DHT22;7490;63.708;20.368;2022-10-31T05:50:49;1.50;89.70
14798;DHT22;7490;63.708;20.368;2022-10-31T05:53:15;1.50;89.60
14798;DHT22;7490;63.708;20.368;2022-10-31T05:55:42;1.50;89.70
14798;DHT22;7490;63.708;20.368;2022-10-31T05:58:09;1.50;89.80
14798;DHT22;7490;63.708;20.368;2022-10-31T06:00:34;1.50;89.80
14798;DHT22;7490;63.708;20.368;2022-10-31T06:03:06;1.50;89.70
14798;DHT22;7490;63.708;20.368;2022-10-31T06:05:33;1.50;89.80
14798;DHT22;7490;63.708;20.368;2022-10-31T06:07:59;1.50;89.90
14798;DHT22;7490;63.708;20.368;2022-10-31T06:10:25;1.50;90.00
14798;DHT22;7490;63.708;20.368;2022-10-31T06:12:51;1.50;90.00
14798;DHT22;7490;63.708;20.368;2022-10-31T06:15:17;1.50;90.00
14798;DHT22;7490;63.708;20.368;2022-10-31T06:17:43;1.50;89.90
14798;DHT22;7490;63.708;20.368;2022-10-31T06:20:09;1.50;90.00
14798;DHT22;7490;63.708;20.368;2022-10-31T06:22:35;1.50;90.00
14798;DHT22;7490;63.708;20.368;2022-10-31T06:25:00;1.50;90.00
14798;DHT22;7490;63.708;20.368;2022-10-31T06:27:27;1.60;90.00
14798;DHT22;7490;63.708;20.368;2022-10-31T06:29:52;1.60;90.10
14798;DHT22;7490;63.708;20.368;2022-10-31T06:32:18;1.60;90.10
14798;DHT22;7490;63.708;20.368;2022-10-31T06:34:44;1.60;90.10
14798;DHT22;7490;63.708;20.368;2022-10-31T06:37:13;1.60;90.10
14798;DHT22;7490;63.708;20.368;2022-10-31T06:39:39;1.60;90.10
14798;DHT22;7490;63.708;20.368;2022-10-31T06:42:05;1.60;90.10
14798;DHT22;7490;63.708;20.368;2022-10-31T06:44:31;1.60;90.20
14798;DHT22;7490;63.708;20.368;2022-10-31T06:46:56;1.70;90.20
14798;DHT22;7490;63.708;20.368;2022-10-31T06:49:22;1.70;90.20
14798;DHT22;7490;63.708;20.368;2022-10-31T06:51:48;1.70;90.30
14798;DHT22;7490;63.708;20.368;2022-10-31T06:54:15;1.80;90.30
14798;DHT22;7490;63.708;20.368;2022-10-31T06:56:41;1.80;90.30
14798;DHT22;7490;63.708;20.368;2022-10-31T06:59:06;1.80;90.30
14798;DHT22;7490;63.708;20.368;2022-10-31T07:01:32;1.90;90.30
14798;DHT22;7490;63.708;20.368;2022-10-31T07:03:58;1.90;90.20
14798;DHT22;7490;63.708;20.368;2022-10-31T07:06:23;1.90;90.20
14798;DHT22;7490;63.708;20.368;2022-10-31T07:08:49;2.00;90.20
14798;DHT22;7490;63.708;20.368;2022-10-31T07:11:15;2.00;90.40
14798;DHT22;7490;63.708;20.368;2022-10-31T07:13:40;2.10;90.50
14798;DHT22;7490;63.708;20.368;2022-10-31T07:16:06;2.10;90.40
14798;DHT22;7490;63.708;20.368;2022-10-31T07:18:33;2.20;90.40
14798;DHT22;7490;63.708;20.368;2022-10-31T07:20:58;2.20;90.50
14798;DHT22;7490;63.708;20.368;2022-10-31T07:23:24;2.30;90.60
14798;DHT22;7490;63.708;20.368;2022-10-31T07:25:55;2.40;90.50
14798;DHT22;7490;63.708;20.368;2022-10-31T07:28:22;2.40;90.40
14798;DHT22;7490;63.708;20.368;2022-10-31T07:30:54;2.50;90.40
14798;DHT22;7490;63.708;20.368;2022-10-31T07:33:21;2.60;90.40
14798;DHT22;7490;63.708;20.368;2022-10-31T07:35:47;2.60;90.30
14798;DHT22;7490;63.708;20.368;2022-10-31T07:38:14;2.80;90.40
14798;DHT22;7490;63.708;20.368;2022-10-31T07:40:40;2.70;90.50
14798;DHT22;7490;63.708;20.368;2022-10-31T07:43:06;2.80;90.50
14798;DHT22;7490;63.708;20.368;2022-10-31T07:45:32;2.80;90.50
14798;DHT22;7490;63.708;20.368;2022-10-31T07:47:58;2.90;90.60
14798;DHT22;7490;63.708;20.368;2022-10-31T07:50:26;2.90;90.50
14798;DHT22;7490;63.708;20.368;2022-10-31T07:53:09;3.00;90.50
14798;DHT22;7490;63.708;20.368;2022-10-31T07:55:36;3.00;90.50
14798;DHT22;7490;63.708;20.368;2022-10-31T07:58:06;3.10;90.60
14798;DHT22;7490;63.708;20.368;2022-10-31T08:00:34;3.20;90.80
14798;DHT22;7490;63.708;20.368;2022-10-31T08:03:05;3.30;90.90
14798;DHT22;7490;63.708;20.368;2022-10-31T08:05:32;3.50;91.10
14798;DHT22;7490;63.708;20.368;2022-10-31T08:07:58;3.70;91.20
14798;DHT22;7490;63.708;20.368;2022-10-31T08:10:24;4.10;91.50
14798;DHT22;7490;63.708;20.368;2022-10-31T08:13:02;5.10;92.40
14798;DHT22;7490;63.708;20.368;2022-10-31T08:15:28;6.80;91.80
14798;DHT22;7490;63.708;20.368;2022-10-31T08:17:54;7.90;90.60
14798;DHT22;7490;63.708;20.368;2022-10-31T08:20:20;9.00;90.30
14798;DHT22;7490;63.708;20.368;2022-10-31T08:22:59;10.10;89.20
14798;DHT22;7490;63.708;20.368;2022-10-31T08:25:27;10.50;85.70
14798;DHT22;7490;63.708;20.368;2022-10-31T08:27:53;10.30;84.50
14798;DHT22;7490;63.708;20.368;2022-10-31T08:30:20;10.00;84.20
14798;DHT22;7490;63.708;20.368;2022-10-31T08:32:47;9.70;84.60
14798;DHT22;7490;63.708;20.368;2022-10-31T08:35:13;9.30;84.80
14798;DHT22;7490;63.708;20.368;2022-10-31T08:37:39;9.00;85.40
14798;DHT22;7490;63.708;20.368;2022-10-31T08:40:05;8.80;85.80
14798;DHT22;7490;63.708;20.368;2022-10-31T08:42:32;8.60;86.20
14798;DHT22;7490;63.708;20.368;2022-10-31T08:44:57;8.50;86.40
14798;DHT22;7490;63.708;20.368;2022-10-31T08:47:23;8.40;86.40
14798;DHT22;7490;63.708;20.368;2022-10-31T08:49:49;8.40;86.70
14798;DHT22;7490;63.708;20.368;2022-10-31T08:52:14;8.30;87.00
14798;DHT22;7490;63.708;20.368;2022-10-31T08:54:41;8.30;87.10
14798;DHT22;7490;63.708;20.368;2022-10-31T08:57:07;8.40;87.40
14798;DHT22;7490;63.708;20.368;2022-10-31T08:59:32;8.60;88.10
14798;DHT22;7490;63.708;20.368;2022-10-31T09:01:59;8.90;88.30
14798;DHT22;7490;63.708;20.368;2022-10-31T09:04:25;9.50;88.40
14798;DHT22;7490;63.708;20.368;2022-10-31T09:06:50;10.10;87.70
14798;DHT22;7490;63.708;20.368;2022-10-31T09:09:16;10.60;86.00
14798;DHT22;7490;63.708;20.368;2022-10-31T09:11:42;10.70;84.40
14798;DHT22;7490;63.708;20.368;2022-10-31T09:14:07;10.70;83.70
14798;DHT22;7490;63.708;20.368;2022-10-31T09:16:33;10.60;83.70
14798;DHT22;7490;63.708;20.368;2022-10-31T09:18:59;10.40;83.70
14798;DHT22;7490;63.708;20.368;2022-10-31T09:21:24;10.30;83.90
14798;DHT22;7490;63.708;20.368;2022-10-31T09:23:50;10.20;84.30
14798;DHT22;7490;63.708;20.368;2022-10-31T09:26:15;10.20;84.90
14798;DHT22;7490;63.708;20.368;2022-10-31T09:28:41;10.10;85.40
14798;DHT22;7490;63.708;20.368;2022-10-31T09:31:07;10.00;86.00
14798;DHT22;7490;63.708;20.368;2022-10-31T09:33:33;10.00;87.30
14798;DHT22;7490;63.708;20.368;2022-10-31T09:35:58;10.00;88.70
14798;DHT22;7490;63.708;20.368;2022-10-31T09:38:24;10.10;89.90
14798;DHT22;7490;63.708;20.368;2022-10-31T09:46:07;10.30;90.80
14798;DHT22;7490;63.708;20.368;2022-10-31T09:51:28;10.40;91.20
14798;DHT22;7490;63.708;20.368;2022-10-31T09:54:14;10.40;91.20
14798;DHT22;7490;63.708;20.368;2022-10-31T09:56:40;10.40;91.40
14798;DHT22;7490;63.708;20.368;2022-10-31T09:59:16;10.40;91.40
14798;DHT22;7490;63.708;20.368;2022-10-31T10:22:19;10.40;92.10
14798;DHT22;7490;63.708;20.368;2022-10-31T10:30:42;10.40;92.30
14798;DHT22;7490;63.708;20.368;2022-10-31T10:33:12;10.40;92.40
14798;DHT22;7490;63.708;20.368;2022-10-31T10:35:49;10.40;92.40
14798;DHT22;7490;63.708;20.368;2022-10-31T10:38:35;10.50;92.50
14798;DHT22;7490;63.708;20.368;2022-10-31T10:41:10;10.50;92.50
14798;DHT22;7490;63.708;20.368;2022-10-31T10:43:38;10.50;92.60
14798;DHT22;7490;63.708;20.368;2022-10-31T10:46:16;10.60;92.70
14798;DHT22;7490;63.708;20.368;2022-10-31T10:52:27;10.60;92.80
14798;DHT22;7490;63.708;20.368;2022-10-31T10:55:16;10.60;92.80
14798;DHT22;7490;63.708;20.368;2022-10-31T10:58:04;10.70;93.00
14798;DHT22;7490;63.708;20.368;2022-10-31T11:00:44;10.70;93.10
14798;DHT22;7490;63.708;20.368;2022-10-31T11:03:13;10.70;93.20
14798;DHT22;7490;63.708;20.368;2022-10-31T11:05:59;10.80;93.30
14798;DHT22;7490;63.708;20.368;2022-10-31T11:08:28;10.90;93.40
14798;DHT22;7490;63.708;20.368;2022-10-31T11:11:19;10.90;93.30
14798;DHT22;7490;63.708;20.368;2022-10-31T11:13:51;10.90;93.40
14798;DHT22;7490;63.708;20.368;2022-10-31T11:16:33;11.00;93.30
14798;DHT22;7490;63.708;20.368;2022-10-31T11:21:38;11.00;93.40
14798;DHT22;7490;63.708;20.368;2022-10-31T11:26:29;10.90;93.50
14798;DHT22;7490;63.708;20.368;2022-10-31T11:28:59;10.90;93.50
14798;DHT22;7490;63.708;20.368;2022-10-31T11:31:25;10.90;93.60
14798;DHT22;7490;63.708;20.368;2022-10-31T11:38:49;11.00;93.70
14798;DHT22;7490;63.708;20.368;2022-10-31T11:41:16;11.00;93.70
14798;DHT22;7490;63.708;20.368;2022-10-31T11:43:50;11.00;93.80
14798;DHT22;7490;63.708;20.368;2022-10-31T11:46:30;11.00;93.80
14798;DHT22;7490;63.708;20.368;2022-10-31T11:48:56;11.10;93.80
14798;DHT22;7490;63.708;20.368;2022-10-31T11:51:25;11.10;93.80
14798;DHT22;7490;63.708;20.368;2022-10-31T11:53:53;11.10;93.80
14798;DHT22;7490;63.708;20.368;2022-10-31T11:56:20;11.10;93.90
14798;DHT22;7490;63.708;20.368;2022-10-31T11:59:17;11.10;93.90
14798;DHT22;7490;63.708;20.368;2022-10-31T12:01:47;11.10;94.00
14798;DHT22;7490;63.708;20.368;2022-10-31T12:04:15;11.20;94.10
14798;DHT22;7490;63.708;20.368;2022-10-31T12:06:44;11.20;94.10
14798;DHT22;7490;63.708;20.368;2022-10-31T12:09:27;11.20;94.10
14798;DHT22;7490;63.708;20.368;2022-10-31T12:23:18;11.70;94.60
14798;DHT22;7490;63.708;20.368;2022-10-31T12:36:31;12.10;93.50
14798;DHT22;7490;63.708;20.368;2022-10-31T12:42:31;11.90;93.20
14798;DHT22;7490;63.708;20.368;2022-10-31T12:54:01;11.70;93.10
14798;DHT22;7490;63.708;20.368;2022-10-31T12:59:04;11.70;92.90
14798;DHT22;7490;63.708;20.368;2022-10-31T13:01:50;11.60;92.90
14798;DHT22;7490;63.708;20.368;2022-10-31T13:06:56;11.50;92.90
14798;DHT22;7490;63.708;20.368;2022-10-31T13:09:54;11.50;92.90
14798;DHT22;7490;63.708;20.368;2022-10-31T13:12:22;11.50;92.90
14798;DHT22;7490;63.708;20.368;2022-10-31T13:14:49;11.40;92.90
14798;DHT22;7490;63.708;20.368;2022-10-31T13:17:36;11.40;92.90
14798;DHT22;7490;63.708;20.368;2022-10-31T13:22:48;11.30;92.90
14798;DHT22;7490;63.708;20.368;2022-10-31T13:25:36;11.30;92.90
14798;DHT22;7490;63.708;20.368;2022-10-31T13:28:12;11.30;92.90
14798;DHT22;7490;63.708;20.368;2022-10-31T13:30:40;11.30;92.90
14798;DHT22;7490;63.708;20.368;2022-10-31T13:39:03;11.20;92.90
14798;DHT22;7490;63.708;20.368;2022-10-31T13:46:50;11.10;92.90
14798;DHT22;7490;63.708;20.368;2022-10-31T13:49:37;11.10;92.90
14798;DHT22;7490;63.708;20.368;2022-10-31T13:54:36;11.10;93.00
14798;DHT22;7490;63.708;20.368;2022-10-31T13:57:06;11.10;92.90
14798;DHT22;7490;63.708;20.368;2022-10-31T13:59:34;11.10;92.80
14798;DHT22;7490;63.708;20.368;2022-10-31T14:02:14;11.10;92.80
14798;DHT22;7490;63.708;20.368;2022-10-31T14:04:52;11.00;92.70
14798;DHT22;7490;63.708;20.368;2022-10-31T14:07:22;11.00;92.80
14798;DHT22;7490;63.708;20.368;2022-10-31T14:10:02;10.90;92.70
14798;DHT22;7490;63.708;20.368;2022-10-31T14:12:41;10.80;92.70
14798;DHT22;7490;63.708;20.368;2022-10-31T14:15:22;10.70;92.60
14798;DHT22;7490;63.708;20.368;2022-10-31T14:18:01;10.60;92.60
14798;DHT22;7490;63.708;20.368;2022-10-31T14:20:44;10.40;92.60
14798;DHT22;7490;63.708;20.368;2022-10-31T14:26:05;10.10;92.70
14798;DHT22;7490;63.708;20.368;2022-10-31T14:28:34;10.00;92.80
14798;DHT22;7490;63.708;20.368;2022-10-31T14:31:00;9.90;92.90
14798;DHT22;7490;63.708;20.368;2022-10-31T14:33:28;9.80;93.00
14798;DHT22;7490;63.708;20.368;2022-10-31T14:36:06;9.70;93.10
14798;DHT22;7490;63.708;20.368;2022-10-31T14:39:07;9.60;93.10
14798;DHT22;7490;63.708;20.368;2022-10-31T14:48:41;9.40;93.20
14798;DHT22;7490;63.708;20.368;2022-10-31T14:50:50;9.30;93.20
14798;DHT22;7490;63.708;20.368;2022-10-31T14:55:54;9.20;93.20
14798;DHT22;7490;63.708;20.368;2022-10-31T14:58:41;9.10;93.20
14798;DHT22;7490;63.708;20.368;2022-10-31T15:01:21;9.10;93.20
14798;DHT22;7490;63.708;20.368;2022-10-31T15:03:48;9.00;93.30
14798;DHT22;7490;63.708;20.368;2022-10-31T15:06:16;9.00;93.30
14798;DHT22;7490;63.708;20.368;2022-10-31T15:08:51;8.90;93.50
14798;DHT22;7490;63.708;20.368;2022-10-31T15:11:20;8.90;93.50
14798;DHT22;7490;63.708;20.368;2022-10-31T15:16:19;8.90;93.30
14798;DHT22;7490;63.708;20.368;2022-10-31T15:19:02;8.80;93.40
14798;DHT22;7490;63.708;20.368;2022-10-31T15:21:29;8.70;93.50
14798;DHT22;7490;63.708;20.368;2022-10-31T15:24:00;8.70;93.70
14798;DHT22;7490;63.708;20.368;2022-10-31T15:26:37;8.80;93.90
14798;DHT22;7490;63.708;20.368;2022-10-31T15:29:18;8.90;94.00
14798;DHT22;7490;63.708;20.368;2022-10-31T15:31:57;9.00;94.00
14798;DHT22;7490;63.708;20.368;2022-10-31T15:34:38;9.00;94.00
14798;DHT22;7490;63.708;20.368;2022-10-31T15:37:04;9.10;94.00
14798;DHT22;7490;63.708;20.368;2022-10-31T15:39:30;9.20;94.00
14798;DHT22;7490;63.708;20.368;2022-10-31T15:41:57;9.30;94.00
14798;DHT22;7490;63.708;20.368;2022-10-31T15:44:28;9.30;94.00
14798;DHT22;7490;63.708;20.368;2022-10-31T15:47:00;9.40;94.00
14798;DHT22;7490;63.708;20.368;2022-10-31T15:51:57;9.50;94.00
14798;DHT22;7490;63.708;20.368;2022-10-31T15:54:28;9.50;94.00
14798;DHT22;7490;63.708;20.368;2022-10-31T15:56:54;9.60;93.90
14798;DHT22;7490;63.708;20.368;2022-10-31T15:59:22;9.60;93.90
14798;DHT22;7490;63.708;20.368;2022-10-31T16:02:00;9.60;93.90
14798;DHT22;7490;63.708;20.368;2022-10-31T16:04:26;9.70;93.90
14798;DHT22;7490;63.708;20.368;2022-10-31T16:07:11;9.70;93.80
14798;DHT22;7490;63.708;20.368;2022-10-31T16:10:01;9.70;93.70
14798;DHT22;7490;63.708;20.368;2022-10-31T16:12:42;9.70;93.70
14798;DHT22;7490;63.708;20.368;2022-10-31T16:15:14;9.80;93.70
14798;DHT22;7490;63.708;20.368;2022-10-31T16:17:41;9.80;93.70
14798;DHT22;7490;63.708;20.368;2022-10-31T16:20:16;9.80;93.60
14798;DHT22;7490;63.708;20.368;2022-10-31T16:22:48;9.80;93.60
14798;DHT22;7490;63.708;20.368;2022-10-31T16:25:21;9.90;93.60
14798;DHT22;7490;63.708;20.368;2022-10-31T16:27:50;9.90;93.60
14798;DHT22;7490;63.708;20.368;2022-10-31T16:30:37;9.90;93.50
14798;DHT22;7490;63.708;20.368;2022-10-31T16:33:05;9.90;93.40
14798;DHT22;7490;63.708;20.368;2022-10-31T16:35:45;9.90;93.40
14798;DHT22;7490;63.708;20.368;2022-10-31T16:38:10;9.90;93.30
14798;DHT22;7490;63.708;20.368;2022-10-31T16:40:38;9.90;93.20
14798;DHT22;7490;63.708;20.368;2022-10-31T16:43:03;10.00;93.20
14798;DHT22;7490;63.708;20.368;2022-10-31T16:45:31;9.90;93.50
14798;DHT22;7490;63.708;20.368;2022-10-31T16:48:03;9.90;93.10
14798;DHT22;7490;63.708;20.368;2022-10-31T16:50:30;9.90;93.10
14798;DHT22;7490;63.708;20.368;2022-10-31T16:52:55;9.90;93.10
14798;DHT22;7490;63.708;20.368;2022-10-31T16:55:21;9.90;93.00
14798;DHT22;7490;63.708;20.368;2022-10-31T16:57:51;9.90;93.00
14798;DHT22;7490;63.708;20.368;2022-10-31T17:00:25;9.90;93.00
14798;DHT22;7490;63.708;20.368;2022-10-31T17:02:53;9.90;93.00
14798;DHT22;7490;63.708;20.368;2022-10-31T17:05:20;9.90;92.90
14798;DHT22;7490;63.708;20.368;2022-10-31T17:07:47;9.90;92.90
14798;DHT22;7490;63.708;20.368;2022-10-31T17:10:14;9.90;92.90
14798;DHT22;7490;63.708;20.368;2022-10-31T17:12:43;9.90;92.80
14798;DHT22;7490;63.708;20.368;2022-10-31T17:15:21;9.80;92.80
14798;DHT22;7490;63.708;20.368;2022-10-31T17:17:48;9.80;92.80
14798;DHT22;7490;63.708;20.368;2022-10-31T17:20:25;9.80;92.80
14798;DHT22;7490;63.708;20.368;2022-10-31T17:22:52;9.80;92.80
14798;DHT22;7490;63.708;20.368;2022-10-31T17:25:20;9.80;92.80
14798;DHT22;7490;63.708;20.368;2022-10-31T17:27:47;9.80;92.80
14798;DHT22;7490;63.708;20.368;2022-10-31T17:30:13;9.70;92.80
14798;DHT22;7490;63.708;20.368;2022-10-31T17:32:40;9.70;92.80
14798;DHT22;7490;63.708;20.368;2022-10-31T17:35:07;9.70;92.70
14798;DHT22;7490;63.708;20.368;2022-10-31T17:37:33;9.70;92.70
14798;DHT22;7490;63.708;20.368;2022-10-31T17:39:59;9.70;92.60
14798;DHT22;7490;63.708;20.368;2022-10-31T17:42:25;9.70;92.60
14798;DHT22;7490;63.708;20.368;2022-10-31T17:44:50;9.70;92.50
14798;DHT22;7490;63.708;20.368;2022-10-31T17:47:16;9.70;92.50
14798;DHT22;7490;63.708;20.368;2022-10-31T17:49:42;9.70;92.40
14798;DHT22;7490;63.708;20.368;2022-10-31T17:52:07;9.60;92.30
14798;DHT22;7490;63.708;20.368;2022-10-31T17:54:33;9.60;92.40
14798;DHT22;7490;63.708;20.368;2022-10-31T17:56:59;9.60;92.30
14798;DHT22;7490;63.708;20.368;2022-10-31T17:59:24;9.60;92.30
14798;DHT22;7490;63.708;20.368;2022-10-31T18:01:52;9.60;92.30
14798;DHT22;7490;63.708;20.368;2022-10-31T18:04:17;9.50;92.20
14798;DHT22;7490;63.708;20.368;2022-10-31T18:06:43;9.50;92.10
14798;DHT22;7490;63.708;20.368;2022-10-31T18:09:09;9.40;91.90
14798;DHT22;7490;63.708;20.368;2022-10-31T18:11:35;9.30;91.80
14798;DHT22;7490;63.708;20.368;2022-10-31T18:14:01;9.10;91.60
14798;DHT22;7490;63.708;20.368;2022-10-31T18:16:26;9.00;91.80
14798;DHT22;7490;63.708;20.368;2022-10-31T18:18:55;8.90;91.70
14798;DHT22;7490;63.708;20.368;2022-10-31T18:21:23;8.70;91.70
14798;DHT22;7490;63.708;20.368;2022-10-31T18:23:57;8.60;91.70
14798;DHT22;7490;63.708;20.368;2022-10-31T18:26:23;8.50;91.80
14798;DHT22;7490;63.708;20.368;2022-10-31T18:28:50;8.40;91.80
14798;DHT22;7490;63.708;20.368;2022-10-31T18:31:15;8.30;91.80
14798;DHT22;7490;63.708;20.368;2022-10-31T18:33:41;8.40;91.80